createdAt,value
2022-09-03T00:00:41.988Z,1.20
2022-09-03T00:03:20.510Z,1.10
2022-09-03T00:05:55.526Z,0.98
2022-09-03T00:08:25.035Z,1.13
2022-09-03T00:11:17.561Z,1.10
2022-09-03T00:13:51.444Z,1.20
2022-09-03T00:16:21.797Z,1.10
2022-09-03T00:18:54.465Z,0.90
2022-09-03T00:21:34.140Z,1.00
2022-09-03T00:24:04.536Z,0.93
2022-09-03T00:26:35.990Z,0.93
2022-09-03T00:29:09.844Z,0.93
2022-09-03T00:31:42.848Z,1.17
2022-09-03T00:34:21.219Z,1.55
2022-09-03T00:36:47.758Z,1.13
2022-09-03T00:39:20.633Z,1.00
2022-09-03T00:42:24.966Z,0.88
2022-09-03T00:44:56.829Z,1.38
2022-09-03T00:47:38.593Z,1.80
2022-09-03T00:50:41.281Z,1.10
2022-09-03T00:53:32.286Z,0.70
2022-09-03T00:56:04.278Z,1.13
2022-09-03T00:58:44.715Z,0.80
2022-09-03T01:01:26.376Z,1.08
2022-09-03T01:04:21.575Z,1.20
2022-09-03T01:07:09.109Z,1.10
2022-09-03T01:10:01.190Z,1.35
2022-09-03T01:12:39.871Z,0.80
2022-09-03T01:15:15.362Z,1.50
2022-09-03T01:17:50.493Z,1.10
2022-09-03T01:20:35.492Z,1.13
2022-09-03T01:23:17.143Z,1.10
2022-09-03T01:26:05.364Z,1.02
2022-09-03T01:29:12.124Z,1.20
2022-09-03T01:31:57.938Z,1.00
2022-09-03T01:34:56.960Z,0.98
2022-09-03T01:37:47.037Z,1.08
2022-09-03T01:40:40.686Z,1.20
2022-09-03T01:43:34.136Z,0.77
2022-09-03T01:46:19.046Z,0.90
2022-09-03T01:49:00.605Z,1.00
2022-09-03T01:51:32.235Z,1.20
2022-09-03T01:54:21.541Z,0.80
2022-09-03T01:57:19.128Z,1.05
2022-09-03T02:00:04.290Z,0.90
2022-09-03T02:02:31.677Z,1.20
2022-09-03T02:05:01.324Z,0.85
2022-09-03T02:07:34.678Z,1.52
2022-09-03T02:10:02.609Z,1.23
2022-09-03T02:12:33.574Z,1.02
2022-09-03T02:15:03.893Z,1.33
2022-09-03T02:17:33.755Z,1.10
2022-09-03T02:20:06.688Z,1.02
2022-09-03T02:22:34.129Z,0.90
2022-09-03T02:25:01.179Z,1.30
2022-09-03T02:27:28.098Z,1.13
2022-09-03T02:29:54.642Z,1.10
2022-09-03T02:32:21.196Z,1.35
2022-09-03T02:34:47.910Z,1.58
2022-09-03T02:37:15.595Z,1.42
2022-09-03T02:39:42.488Z,1.30
2022-09-03T02:42:11.341Z,1.90
2022-09-03T02:44:45.019Z,1.98
2022-09-03T02:47:11.474Z,2.67
2022-09-03T02:49:38.297Z,2.42
2022-09-03T02:52:09.523Z,3.03
2022-09-03T02:54:40.079Z,2.97
2022-09-03T02:57:13.649Z,3.42
2022-09-03T02:59:41.665Z,3.30
2022-09-03T03:02:08.608Z,3.17
2022-09-03T03:04:35.239Z,3.72
2022-09-03T03:07:01.680Z,3.20
2022-09-03T03:09:29.502Z,3.08
2022-09-03T03:14:23.377Z,3.38
2022-09-03T03:16:50.870Z,3.58
2022-09-03T03:19:17.816Z,3.50
2022-09-03T03:21:44.578Z,3.53
2022-09-03T03:24:11.330Z,3.75
2022-09-03T03:26:37.887Z,4.22
2022-09-03T03:29:04.876Z,3.50
2022-09-03T03:31:31.545Z,3.25
2022-09-03T03:34:00.485Z,3.70
2022-09-03T03:36:30.038Z,2.65
2022-09-03T03:38:58.295Z,2.95
2022-09-03T03:41:27.229Z,2.72
2022-09-03T03:43:58.112Z,2.65
2022-09-03T03:46:25.928Z,2.58
2022-09-03T03:48:52.802Z,2.20
2022-09-03T03:51:22.384Z,2.40
2022-09-03T03:53:49.045Z,2.88
2022-09-03T03:56:16.461Z,1.80
2022-09-03T03:58:44.140Z,1.83
2022-09-03T04:01:22.258Z,1.85
2022-09-03T04:03:48.881Z,1.85
2022-09-03T04:06:17.812Z,1.50
2022-09-03T04:08:47.321Z,1.52
2022-09-03T04:11:21.742Z,1.23
2022-09-03T04:13:49.159Z,1.33
2022-09-03T04:16:20.964Z,1.58
2022-09-03T04:18:50.574Z,1.70
2022-09-03T04:21:22.610Z,1.08
2022-09-03T04:23:51.833Z,1.30
2022-09-03T04:26:23.568Z,1.30
2022-09-03T04:28:50.232Z,0.80
2022-09-03T04:31:22.457Z,0.63
2022-09-03T04:33:52.211Z,1.25
2022-09-03T04:36:20.910Z,1.20
2022-09-03T04:38:53.493Z,0.95
2022-09-03T04:41:24.894Z,1.00
2022-09-03T04:43:52.968Z,1.00
2022-09-03T04:46:21.268Z,1.02
2022-09-03T04:48:52.689Z,1.13
2022-09-03T04:51:23.283Z,1.10
2022-09-03T04:53:57.317Z,0.80
2022-09-03T04:56:28.823Z,1.00
2022-09-03T04:59:01.386Z,1.00
2022-09-03T05:01:30.002Z,1.02
2022-09-03T05:03:58.006Z,0.80
2022-09-03T05:08:54.291Z,0.80
2022-09-03T05:11:21.493Z,0.98
2022-09-03T05:13:53.812Z,0.98
2022-09-03T05:16:21.726Z,0.80
2022-09-03T05:21:17.275Z,0.95
2022-09-03T05:23:45.813Z,0.88
2022-09-03T05:26:34.167Z,0.85
2022-09-03T05:29:02.559Z,0.75
2022-09-03T05:31:31.499Z,0.98
2022-09-03T05:34:00.471Z,1.10
2022-09-03T05:36:29.496Z,0.93
2022-09-03T05:38:56.396Z,0.90
2022-09-03T05:41:25.531Z,0.73
2022-09-03T05:43:59.437Z,1.05
2022-09-03T05:46:32.266Z,0.95
2022-09-03T05:49:01.395Z,0.82
2022-09-03T05:51:29.123Z,0.90
2022-09-03T05:53:55.855Z,0.80
2022-09-03T05:56:24.519Z,0.95
2022-09-03T05:58:53.746Z,1.00
2022-09-03T06:01:23.259Z,1.08
2022-09-03T06:03:58.346Z,1.00
2022-09-03T06:06:27.121Z,0.75
2022-09-03T06:08:55.408Z,1.08
2022-09-03T06:11:28.073Z,1.23
2022-09-03T06:13:56.703Z,0.95
2022-09-03T06:16:30.652Z,0.98
2022-09-03T06:19:01.687Z,0.85
2022-09-03T06:21:29.509Z,0.80
2022-09-03T06:23:59.483Z,0.73
2022-09-03T06:26:29.326Z,0.60
2022-09-03T06:28:56.821Z,0.70
2022-09-03T06:31:24.865Z,0.80
2022-09-03T06:33:53.018Z,0.63
2022-09-03T06:36:25.079Z,0.75
2022-09-03T06:38:53.584Z,0.70
2022-09-03T06:41:25.931Z,0.70
2022-09-03T06:43:55.630Z,0.88
2022-09-03T06:46:23.948Z,1.02
2022-09-03T06:48:51.624Z,0.70
2022-09-03T06:51:23.759Z,0.70
2022-09-03T06:53:52.848Z,0.75
2022-09-03T06:56:27.423Z,1.00
2022-09-03T06:58:59.379Z,0.63
2022-09-03T07:01:31.195Z,0.82
2022-09-03T07:04:00.967Z,0.73
2022-09-03T07:06:33.070Z,0.63
2022-09-03T07:09:00.168Z,0.80
2022-09-03T07:11:29.277Z,0.70
2022-09-03T07:13:56.234Z,0.85
2022-09-03T07:16:29.726Z,1.40
2022-09-03T07:18:57.153Z,0.95
2022-09-03T07:21:26.047Z,0.70
2022-09-03T07:23:53.795Z,0.60
2022-09-03T07:26:26.376Z,0.93
2022-09-03T07:28:54.217Z,0.90
2022-09-03T07:33:57.310Z,0.60
2022-09-03T07:36:27.212Z,0.90
2022-09-03T07:38:59.091Z,0.80
2022-09-03T07:41:28.245Z,0.60
2022-09-03T07:43:55.763Z,0.73
2022-09-03T07:46:24.622Z,0.50
2022-09-03T07:48:55.449Z,0.77
2022-09-03T07:51:26.554Z,0.80
2022-09-03T07:53:56.043Z,0.90
2022-09-03T07:56:22.980Z,0.73
2022-09-03T07:58:55.233Z,0.85
2022-09-03T08:01:24.049Z,0.80
2022-09-03T08:03:53.174Z,0.50
2022-09-03T08:06:24.802Z,0.98
2022-09-03T08:09:02.171Z,0.82
2022-09-03T08:14:02.551Z,0.85
2022-09-03T08:16:31.521Z,0.55
2022-09-03T08:18:59.059Z,0.93
2022-09-03T08:21:26.864Z,0.70
2022-09-03T08:26:22.220Z,0.63
2022-09-03T08:28:49.719Z,0.95
2022-09-03T08:31:19.973Z,1.00
2022-09-03T08:33:52.212Z,1.10
2022-09-03T08:36:24.565Z,0.80
2022-09-03T08:38:55.111Z,0.55
2022-09-03T08:41:46.515Z,0.80
2022-09-03T08:44:51.824Z,0.80
2022-09-03T08:47:59.995Z,0.73
2022-09-03T08:50:35.537Z,0.82
2022-09-03T08:53:20.212Z,1.00
2022-09-03T08:56:07.393Z,0.77
2022-09-03T08:58:38.333Z,0.68
2022-09-03T09:01:27.824Z,0.82
2022-09-03T09:04:05.869Z,0.95
2022-09-03T09:06:40.384Z,0.93
2022-09-03T09:09:26.665Z,1.05
2022-09-03T09:11:55.900Z,0.80
2022-09-03T09:14:36.947Z,0.90
2022-09-03T09:17:28.159Z,0.80
2022-09-03T09:20:09.402Z,0.93
2022-09-03T09:22:47.421Z,1.33
2022-09-03T09:25:18.772Z,0.85
2022-09-03T09:27:51.962Z,1.20
2022-09-03T09:30:19.987Z,1.60
2022-09-03T09:32:47.255Z,0.95
2022-09-03T09:35:18.888Z,0.77
2022-09-03T09:37:57.030Z,1.15
2022-09-03T09:40:35.144Z,0.70
2022-09-03T09:43:10.932Z,1.10
2022-09-03T09:45:43.506Z,1.08
2022-09-03T09:48:24.002Z,0.90
2022-09-03T09:50:50.658Z,0.90
2022-09-03T09:53:21.484Z,1.10
2022-09-03T09:55:58.108Z,0.70
2022-09-03T09:58:30.891Z,0.93
2022-09-03T10:01:04.090Z,1.10
2022-09-03T10:03:35.626Z,1.35
2022-09-03T10:06:32.504Z,1.15
2022-09-03T10:09:12.118Z,0.70
2022-09-03T10:11:42.949Z,0.80
2022-09-03T10:14:24.450Z,0.93
2022-09-03T10:16:59.591Z,0.90
2022-09-03T10:19:40.281Z,0.82
2022-09-03T10:22:17.950Z,1.10
2022-09-03T10:24:59.132Z,1.27
2022-09-03T10:27:25.942Z,0.80
2022-09-03T10:29:53.409Z,1.02
2022-09-03T10:32:36.911Z,0.68
2022-09-03T10:35:21.968Z,1.10
2022-09-03T10:38:02.836Z,0.80
2022-09-03T10:40:35.128Z,0.65
2022-09-03T10:43:44.927Z,0.77
2022-09-03T10:46:20.621Z,1.02
2022-09-03T10:49:30.074Z,0.80
2022-09-03T10:52:08.941Z,0.80
2022-09-03T10:54:44.635Z,0.65
2022-09-03T10:57:20.607Z,0.80
2022-09-03T10:59:56.220Z,0.70
2022-09-03T11:02:29.062Z,0.80
2022-09-03T11:05:19.624Z,1.00
2022-09-03T11:07:54.116Z,0.80
2022-09-03T11:10:33.281Z,1.02
2022-09-03T11:13:09.649Z,0.65
2022-09-03T11:15:51.661Z,1.00
2022-09-03T11:18:25.878Z,0.90
2022-09-03T11:20:57.217Z,0.70
2022-09-03T11:23:25.654Z,0.60
2022-09-03T11:25:57.597Z,0.77
2022-09-03T11:28:52.104Z,0.65
2022-09-03T11:31:57.743Z,1.00
2022-09-03T11:34:32.543Z,1.38
2022-09-03T11:37:22.014Z,0.60
2022-09-03T11:40:04.316Z,1.25
2022-09-03T11:42:36.838Z,0.80
2022-09-03T11:45:21.550Z,0.88
2022-09-03T11:47:52.372Z,0.57
2022-09-03T11:50:22.133Z,0.98
2022-09-03T11:52:51.761Z,1.02
2022-09-03T11:55:37.590Z,0.75
2022-09-03T12:01:09.025Z,0.55
2022-09-03T12:04:03.539Z,0.95
2022-09-03T12:06:45.849Z,0.75
2022-09-03T12:09:31.305Z,0.85
2022-09-03T12:12:16.301Z,0.63
2022-09-03T12:15:04.163Z,0.82
2022-09-03T12:18:10.861Z,1.10
2022-09-03T12:20:37.623Z,1.10
2022-09-03T12:23:04.182Z,0.75
2022-09-03T12:25:30.830Z,0.63
2022-09-03T12:28:01.308Z,1.02
2022-09-03T12:30:30.342Z,0.88
2022-09-03T12:33:07.951Z,0.90
2022-09-03T12:38:26.155Z,1.10
2022-09-03T12:43:42.407Z,1.08
2022-09-03T12:46:16.041Z,0.85
2022-09-03T12:51:52.162Z,0.80
2022-09-03T12:54:21.339Z,0.93
2022-09-03T12:57:00.158Z,1.40
2022-09-03T12:59:31.726Z,0.82
2022-09-03T13:02:12.829Z,0.75
2022-09-03T13:04:41.246Z,0.88
2022-09-03T13:07:33.528Z,0.85
2022-09-03T13:10:07.815Z,1.92
2022-09-03T13:12:53.463Z,0.57
2022-09-03T13:15:23.863Z,0.90
2022-09-03T13:18:07.765Z,0.90
2022-09-03T13:20:34.786Z,0.85
2022-09-03T13:23:20.982Z,0.70
2022-09-03T13:25:53.856Z,0.80
2022-09-03T13:28:29.809Z,0.70
2022-09-03T13:31:34.032Z,1.00
2022-09-03T13:34:09.482Z,0.95
2022-09-03T13:36:49.026Z,0.90
2022-09-03T13:41:58.112Z,0.95
2022-09-03T13:44:38.139Z,1.20
2022-09-03T13:47:25.839Z,0.80
2022-09-03T13:50:37.231Z,0.90
2022-09-03T13:53:22.722Z,0.80
2022-09-03T13:55:54.735Z,0.85
2022-09-03T13:58:44.939Z,1.08
2022-09-03T14:01:37.046Z,0.77
2022-09-03T14:04:03.801Z,0.80
2022-09-03T14:06:50.764Z,0.82
2022-09-03T14:09:35.524Z,0.82
2022-09-03T14:12:25.130Z,1.00
2022-09-03T14:15:29.670Z,1.13
2022-09-03T14:18:28.889Z,0.90
2022-09-03T14:20:58.773Z,0.90
2022-09-03T14:23:59.692Z,2.00
2022-09-03T14:26:39.586Z,1.48
2022-09-03T14:29:12.653Z,0.95
2022-09-03T14:31:52.047Z,1.08
2022-09-03T14:34:31.225Z,1.02
2022-09-03T14:37:21.245Z,0.82
2022-09-03T14:40:13.464Z,1.50
2022-09-03T14:43:10.561Z,1.25
2022-09-03T14:45:53.540Z,1.00
2022-09-03T14:48:29.221Z,0.82
2022-09-03T14:50:58.860Z,0.80
2022-09-03T14:54:06.964Z,0.70
2022-09-03T14:57:13.281Z,0.98
2022-09-03T14:59:49.125Z,1.10
2022-09-03T15:02:34.187Z,1.10
2022-09-03T15:05:11.807Z,1.20
2022-09-03T15:07:56.216Z,0.82
2022-09-03T15:10:37.609Z,0.93
2022-09-03T15:13:17.665Z,1.23
2022-09-03T15:16:12.959Z,1.20
2022-09-03T15:19:16.341Z,0.98
2022-09-03T15:22:11.965Z,0.80
2022-09-03T15:25:17.297Z,1.08
2022-09-03T15:28:00.644Z,0.98
2022-09-03T15:30:37.055Z,0.93
2022-09-03T15:33:17.725Z,0.90
2022-09-03T15:36:14.977Z,1.27
2022-09-03T15:38:51.684Z,1.40
2022-09-03T15:41:49.073Z,1.10
2022-09-03T15:44:20.014Z,1.58
2022-09-03T15:47:05.283Z,1.00
2022-09-03T15:49:53.014Z,0.77
2022-09-03T15:52:32.108Z,2.50
2022-09-03T15:55:15.353Z,1.30
2022-09-03T15:57:54.648Z,1.58
2022-09-03T16:00:22.660Z,1.00
2022-09-03T16:02:58.960Z,1.00
2022-09-03T16:05:39.341Z,1.30
2022-09-03T16:08:14.812Z,0.77
2022-09-03T16:11:09.661Z,0.95
2022-09-03T16:13:54.636Z,1.30
2022-09-03T16:16:31.821Z,1.10
2022-09-03T16:19:21.725Z,0.93
2022-09-03T16:22:22.355Z,1.45
2022-09-03T16:25:05.970Z,0.80
2022-09-03T16:27:38.361Z,0.85
2022-09-03T16:30:21.619Z,0.93
2022-09-03T16:33:01.665Z,0.88
2022-09-03T16:35:55.206Z,0.85
2022-09-03T16:38:49.048Z,0.90
2022-09-03T16:41:26.356Z,1.27
2022-09-03T16:44:10.036Z,1.23
2022-09-03T16:47:06.448Z,1.10
2022-09-03T16:49:42.806Z,1.52
2022-09-03T16:52:38.247Z,1.00
2022-09-03T16:55:30.562Z,0.93
2022-09-03T16:58:25.029Z,1.23
2022-09-03T17:01:21.028Z,1.08
2022-09-03T17:04:09.231Z,1.45
2022-09-03T17:06:54.824Z,1.30
2022-09-03T17:09:38.309Z,1.20
2022-09-03T17:12:10.951Z,1.58
2022-09-03T17:15:03.290Z,0.93
2022-09-03T17:17:35.571Z,1.90
2022-09-03T17:20:29.671Z,1.20
2022-09-03T17:23:13.051Z,1.60
2022-09-03T17:25:46.867Z,1.08
2022-09-03T17:28:27.363Z,1.10
2022-09-03T17:31:16.084Z,0.95
2022-09-03T17:34:14.374Z,1.08
2022-09-03T17:36:56.576Z,1.25
2022-09-03T17:39:53.548Z,1.30
2022-09-03T17:42:33.164Z,1.10
2022-09-03T17:45:25.782Z,1.40
2022-09-03T17:48:11.508Z,1.30
2022-09-03T17:51:01.488Z,1.50
2022-09-03T17:53:38.255Z,1.50
2022-09-03T17:56:11.865Z,1.20
2022-09-03T17:58:41.265Z,1.40
2022-09-03T18:01:17.105Z,1.20
2022-09-03T18:03:54.810Z,1.55
2022-09-03T18:06:28.337Z,2.13
2022-09-03T18:09:06.014Z,1.65
2022-09-03T18:11:41.909Z,1.58
2022-09-03T18:14:23.661Z,2.25
2022-09-03T18:17:11.837Z,2.40
2022-09-03T18:20:11.340Z,3.70
2022-09-03T18:23:08.871Z,3.28
2022-09-03T18:25:56.876Z,2.67
2022-09-03T18:28:55.725Z,1.90
2022-09-03T18:31:41.025Z,1.73
2022-09-03T18:34:27.395Z,2.03
2022-09-03T18:37:17.065Z,1.90
2022-09-03T18:40:08.172Z,1.52
2022-09-03T18:43:07.793Z,2.42
2022-09-03T18:47:16.130Z,1.98
2022-09-03T18:49:32.311Z,1.45
2022-09-03T18:52:29.561Z,0.93
2022-09-03T18:55:27.015Z,1.60
2022-09-03T18:58:44.713Z,1.08
2022-09-03T19:01:54.025Z,1.30
2022-09-03T19:04:57.984Z,1.27
2022-09-03T19:08:01.554Z,0.90
2022-09-03T19:10:57.061Z,1.13
2022-09-03T19:13:41.913Z,1.05
2022-09-03T19:16:46.797Z,1.40
2022-09-03T19:19:53.546Z,1.30
2022-09-03T19:22:50.149Z,1.67
2022-09-03T19:25:35.629Z,1.23
2022-09-03T19:28:35.585Z,1.33
2022-09-03T19:31:36.372Z,1.77
2022-09-03T19:34:43.025Z,1.30
2022-09-03T19:37:37.204Z,1.70
2022-09-03T19:40:40.551Z,1.40
2022-09-03T19:43:53.646Z,1.58
2022-09-03T19:47:00.686Z,1.10
2022-09-03T19:50:23.709Z,1.13
2022-09-03T19:53:14.452Z,1.40
2022-09-03T19:56:12.966Z,1.27
2022-09-03T19:59:05.527Z,2.08
2022-09-03T20:01:54.902Z,1.13
2022-09-03T20:04:50.677Z,1.35
2022-09-03T20:07:37.784Z,1.85
2022-09-03T20:10:23.736Z,1.63
2022-09-03T20:15:50.366Z,1.45
2022-09-03T20:18:30.747Z,1.23
2022-09-03T20:21:25.223Z,1.65
2022-09-03T20:24:11.290Z,1.30
2022-09-03T20:29:43.778Z,0.90
2022-09-03T20:32:31.695Z,1.40
2022-09-03T20:35:07.916Z,1.27
2022-09-03T20:37:59.019Z,1.02
2022-09-03T20:40:34.770Z,1.50
2022-09-03T20:43:58.602Z,1.30
2022-09-03T20:47:00.492Z,1.00
2022-09-03T20:49:54.595Z,1.42
2022-09-03T20:52:45.790Z,1.40
2022-09-03T20:55:12.875Z,1.60
2022-09-03T20:57:54.830Z,1.20
2022-09-03T21:00:23.333Z,1.40
2022-09-03T21:03:17.290Z,1.40
2022-09-03T21:06:06.764Z,1.58
2022-09-03T21:08:50.626Z,1.40
2022-09-03T21:11:30.528Z,1.92
2022-09-03T21:14:14.621Z,1.60
2022-09-03T21:17:18.833Z,1.95
2022-09-03T21:20:05.495Z,1.73
2022-09-03T21:23:07.343Z,2.00
2022-09-03T21:25:40.875Z,1.27
2022-09-03T21:28:38.502Z,1.30
2022-09-03T21:31:38.531Z,1.90
2022-09-03T21:34:12.984Z,1.92
2022-09-03T21:36:43.482Z,1.50
2022-09-03T21:39:15.313Z,1.33
2022-09-03T21:41:52.536Z,1.23
2022-09-03T21:44:39.345Z,1.33
2022-09-03T21:47:10.238Z,1.60
2022-09-03T21:50:11.966Z,1.63
2022-09-03T21:53:09.469Z,2.05
2022-09-03T21:56:08.225Z,1.20
2022-09-03T21:58:57.693Z,1.35
2022-09-03T22:01:30.017Z,1.38
2022-09-03T22:03:56.496Z,1.70
2022-09-03T22:06:35.037Z,1.35
2022-09-03T22:09:19.101Z,1.70
2022-09-03T22:12:08.709Z,1.23
2022-09-03T22:14:50.140Z,1.83
2022-09-03T22:17:36.178Z,1.95
2022-09-03T22:20:05.332Z,1.83
2022-09-03T22:22:40.922Z,2.20
2022-09-03T22:25:40.541Z,1.85
2022-09-03T22:28:17.744Z,2.35
2022-09-03T22:30:59.015Z,1.95
2022-09-03T22:33:33.161Z,2.05
2022-09-03T22:36:11.575Z,1.80
2022-09-03T22:38:50.730Z,2.00
2022-09-03T22:41:53.054Z,1.70
2022-09-03T22:44:43.972Z,1.90
2022-09-03T22:47:53.252Z,1.92
2022-09-03T22:50:26.873Z,1.70
2022-09-03T22:52:59.320Z,1.70
2022-09-03T22:55:26.575Z,2.20
2022-09-03T22:58:14.029Z,1.80
2022-09-03T23:00:47.019Z,1.95
2022-09-03T23:03:25.388Z,2.03
2022-09-03T23:06:05.669Z,1.58
2022-09-03T23:08:39.413Z,1.80
2022-09-03T23:11:12.816Z,1.60
2022-09-03T23:13:49.012Z,1.77
2022-09-03T23:16:48.849Z,2.58
2022-09-03T23:21:58.608Z,1.83
2022-09-03T23:24:30.619Z,2.28
2022-09-03T23:27:00.968Z,1.92
2022-09-03T23:29:41.164Z,2.10
2022-09-03T23:32:09.399Z,2.92
2022-09-03T23:34:36.589Z,2.47
2022-09-03T23:37:42.171Z,2.47
2022-09-03T23:40:47.966Z,3.03
2022-09-03T23:43:36.404Z,2.28
2022-09-03T23:46:25.738Z,2.05
2022-09-03T23:49:14.055Z,2.90
2022-09-03T23:52:21.430Z,2.17
2022-09-03T23:54:53.686Z,2.72
2022-09-03T23:57:32.088Z,3.00
